createdAt,value
2022-08-26T00:00:42.264Z,5.03
2022-08-26T00:03:45.229Z,4.80
2022-08-26T00:06:47.618Z,5.67
2022-08-26T00:09:54.380Z,4.87
2022-08-26T00:12:57.616Z,5.37
2022-08-26T00:16:00.279Z,5.27
2022-08-26T00:19:02.671Z,5.80
2022-08-26T00:22:05.328Z,5.43
2022-08-26T00:25:08.404Z,4.97
2022-08-26T00:28:12.331Z,5.37
2022-08-26T00:31:16.752Z,5.12
2022-08-26T00:34:19.700Z,4.60
2022-08-26T00:37:22.036Z,4.90
2022-08-26T00:40:31.841Z,5.00
2022-08-26T00:43:47.174Z,5.40
2022-08-26T00:46:59.546Z,4.87
2022-08-26T00:50:07.702Z,5.22
2022-08-26T00:53:24.136Z,5.05
2022-08-26T00:56:38.701Z,4.57
2022-08-26T00:59:42.131Z,4.85
2022-08-26T01:02:48.546Z,4.50
2022-08-26T01:05:58.172Z,4.72
2022-08-26T01:09:00.436Z,5.20
2022-08-26T01:12:03.745Z,5.37
2022-08-26T01:15:07.670Z,5.35
2022-08-26T01:18:13.384Z,5.90
2022-08-26T01:21:52.959Z,5.12
2022-08-26T01:24:59.005Z,5.20
2022-08-26T01:28:05.955Z,4.60
2022-08-26T01:31:12.126Z,4.75
2022-08-26T01:34:23.302Z,4.70
2022-08-26T01:37:32.947Z,4.68
2022-08-26T01:40:38.576Z,5.10
2022-08-26T01:43:45.919Z,4.37
2022-08-26T01:46:51.273Z,5.18
2022-08-26T01:49:56.756Z,5.68
2022-08-26T01:53:11.325Z,4.87
2022-08-26T01:56:15.454Z,4.37
2022-08-26T01:59:20.534Z,5.80
2022-08-26T02:02:24.511Z,4.95
2022-08-26T02:05:27.138Z,4.72
2022-08-26T02:08:56.757Z,4.80
2022-08-26T02:12:01.815Z,4.43
2022-08-26T02:15:08.460Z,5.03
2022-08-26T02:18:14.261Z,5.05
2022-08-26T02:21:17.255Z,4.80
2022-08-26T02:24:27.579Z,5.05
2022-08-26T02:27:33.662Z,5.37
2022-08-26T02:30:38.684Z,4.82
2022-08-26T02:33:43.061Z,4.75
2022-08-26T02:36:45.913Z,5.18
2022-08-26T02:39:48.543Z,4.60
2022-08-26T02:42:53.017Z,6.25
2022-08-26T02:46:00.054Z,4.80
2022-08-26T02:49:05.034Z,4.85
2022-08-26T02:52:08.668Z,5.70
2022-08-26T02:55:11.527Z,5.12
2022-08-26T02:58:13.745Z,5.25
2022-08-26T03:01:25.506Z,4.68
2022-08-26T03:04:27.831Z,5.18
2022-08-26T03:07:30.676Z,5.50
2022-08-26T03:10:32.928Z,5.18
2022-08-26T03:13:36.317Z,4.95
2022-08-26T03:16:39.103Z,5.53
2022-08-26T03:19:41.707Z,5.60
2022-08-26T03:22:44.830Z,5.12
2022-08-26T03:25:52.523Z,5.47
2022-08-26T03:29:14.423Z,5.25
2022-08-26T03:32:17.151Z,5.93
2022-08-26T03:35:19.861Z,5.47
2022-08-26T03:38:27.880Z,5.70
2022-08-26T03:41:32.619Z,5.25
2022-08-26T03:44:37.062Z,5.30
2022-08-26T03:47:45.105Z,5.18
2022-08-26T03:50:47.607Z,5.47
2022-08-26T03:53:51.081Z,5.72
2022-08-26T03:56:53.954Z,5.37
2022-08-26T03:59:56.184Z,5.10
2022-08-26T04:02:59.158Z,5.25
2022-08-26T04:06:01.834Z,5.03
2022-08-26T04:09:07.865Z,6.20
2022-08-26T04:12:10.923Z,7.32
2022-08-26T04:15:16.400Z,6.32
2022-08-26T04:18:20.745Z,5.90
2022-08-26T04:21:24.315Z,6.03
2022-08-26T04:24:27.964Z,5.43
2022-08-26T04:27:30.285Z,5.20
2022-08-26T04:30:37.519Z,5.95
2022-08-26T04:33:41.681Z,5.53
2022-08-26T04:36:44.692Z,5.32
2022-08-26T04:39:51.542Z,5.53
2022-08-26T04:42:54.730Z,5.82
2022-08-26T04:46:02.947Z,5.43
2022-08-26T04:49:08.285Z,5.35
2022-08-26T04:52:10.568Z,8.55
2022-08-26T04:55:13.095Z,6.37
2022-08-26T04:58:18.572Z,6.25
2022-08-26T05:01:22.018Z,6.25
2022-08-26T05:04:26.309Z,4.90
2022-08-26T05:07:28.820Z,5.50
2022-08-26T05:10:31.097Z,5.72
2022-08-26T05:13:34.848Z,6.30
2022-08-26T05:16:37.756Z,5.60
2022-08-26T05:19:43.166Z,5.60
2022-08-26T05:22:45.410Z,6.28
2022-08-26T05:25:50.161Z,5.22
2022-08-26T05:28:54.889Z,6.12
2022-08-26T05:31:57.925Z,4.90
2022-08-26T05:35:00.348Z,5.80
2022-08-26T05:38:12.413Z,5.45
2022-08-26T05:41:34.283Z,4.62
2022-08-26T05:44:54.045Z,6.03
2022-08-26T05:47:58.349Z,5.22
2022-08-26T05:51:05.195Z,4.68
2022-08-26T05:54:07.486Z,5.47
2022-08-26T05:57:13.903Z,6.05
2022-08-26T06:00:16.393Z,5.87
2022-08-26T06:03:19.340Z,5.45
2022-08-26T06:06:33.552Z,5.00
2022-08-26T06:09:37.631Z,4.53
2022-08-26T06:12:41.512Z,4.93
2022-08-26T06:15:49.166Z,4.65
2022-08-26T06:18:53.394Z,4.53
2022-08-26T06:21:56.019Z,4.47
2022-08-26T06:25:16.899Z,4.95
2022-08-26T06:28:19.463Z,4.82
2022-08-26T06:31:22.962Z,5.00
2022-08-26T06:34:30.916Z,5.00
2022-08-26T06:37:35.766Z,4.60
2022-08-26T06:40:48.727Z,5.30
2022-08-26T06:43:51.250Z,5.20
2022-08-26T06:46:54.098Z,5.28
2022-08-26T06:49:57.078Z,4.32
2022-08-26T06:52:59.785Z,4.83
2022-08-26T06:56:06.223Z,4.60
2022-08-26T06:59:10.544Z,4.18
2022-08-26T07:02:13.344Z,3.80
2022-08-26T07:05:16.437Z,4.78
2022-08-26T07:08:18.785Z,4.93
2022-08-26T07:11:21.651Z,5.47
2022-08-26T07:14:26.635Z,4.35
2022-08-26T07:17:29.778Z,4.75
2022-08-26T07:20:32.100Z,4.00
2022-08-26T07:23:35.675Z,4.25
2022-08-26T07:29:43.431Z,3.90
2022-08-26T07:32:45.957Z,4.43
2022-08-26T07:35:48.730Z,4.05
2022-08-26T07:41:54.613Z,3.63
2022-08-26T07:44:56.880Z,4.90
2022-08-26T07:48:00.232Z,4.87
2022-08-26T07:51:06.349Z,4.10
2022-08-26T07:54:09.106Z,4.15
2022-08-26T07:57:11.372Z,4.18
2022-08-26T08:00:16.223Z,4.03
2022-08-26T08:03:18.962Z,3.75
2022-08-26T08:06:27.422Z,3.70
2022-08-26T08:09:30.746Z,5.87
2022-08-26T08:12:33.341Z,4.95
2022-08-26T08:15:37.656Z,4.28
2022-08-26T08:18:41.290Z,6.80
2022-08-26T08:21:45.263Z,6.32
2022-08-26T08:24:49.729Z,4.72
2022-08-26T08:27:52.608Z,5.80
2022-08-26T08:30:55.065Z,3.78
2022-08-26T08:36:59.740Z,4.10
2022-08-26T08:40:04.365Z,3.33
2022-08-26T08:43:11.032Z,3.72
2022-08-26T08:46:16.820Z,3.80
2022-08-26T08:49:20.062Z,3.45
2022-08-26T08:52:35.431Z,3.60
2022-08-26T08:55:58.374Z,3.80
2022-08-26T08:59:21.912Z,3.92
2022-08-26T09:02:38.549Z,3.90
2022-08-26T09:05:48.710Z,3.67
2022-08-26T09:08:51.847Z,3.55
2022-08-26T09:11:56.396Z,3.45
2022-08-26T09:15:06.313Z,3.60
2022-08-26T09:18:38.302Z,3.62
2022-08-26T09:21:41.138Z,3.67
2022-08-26T09:24:49.101Z,3.83
2022-08-26T09:27:53.416Z,3.55
2022-08-26T09:31:24.862Z,4.28
2022-08-26T09:34:31.174Z,3.90
2022-08-26T09:40:59.259Z,3.50
2022-08-26T09:44:17.227Z,4.20
2022-08-26T09:47:30.249Z,4.45
2022-08-26T09:50:34.245Z,3.28
2022-08-26T09:56:52.766Z,3.53
2022-08-26T09:59:55.590Z,3.70
2022-08-26T10:03:00.803Z,3.60
2022-08-26T10:06:04.903Z,4.07
2022-08-26T10:09:11.646Z,3.90
2022-08-26T10:12:19.174Z,4.30
2022-08-26T10:15:25.345Z,3.60
2022-08-26T10:18:40.389Z,3.58
2022-08-26T10:21:56.604Z,3.50
2022-08-26T10:25:05.054Z,3.80
2022-08-26T10:28:23.430Z,4.50
2022-08-26T10:31:47.854Z,3.83
2022-08-26T10:34:54.049Z,4.03
2022-08-26T10:38:09.217Z,3.87
2022-08-26T10:41:20.750Z,4.00
2022-08-26T10:44:25.394Z,4.18
2022-08-26T10:47:40.241Z,3.35
2022-08-26T10:50:47.415Z,3.40
2022-08-26T10:54:11.894Z,3.65
2022-08-26T10:57:33.128Z,3.62
2022-08-26T11:01:10.146Z,3.67
2022-08-26T11:04:13.201Z,3.72
2022-08-26T11:07:50.893Z,4.00
2022-08-26T11:11:00.024Z,3.92
2022-08-26T11:14:05.037Z,3.33
2022-08-26T11:17:11.677Z,4.00
2022-08-26T11:20:23.943Z,4.50
2022-08-26T11:23:27.219Z,3.90
2022-08-26T11:26:55.475Z,4.35
2022-08-26T11:30:06.306Z,3.60
2022-08-26T11:33:09.269Z,3.90
2022-08-26T11:36:28.645Z,3.70
2022-08-26T11:39:54.060Z,3.15
2022-08-26T11:43:26.067Z,3.80
2022-08-26T11:46:35.871Z,3.35
2022-08-26T11:49:38.797Z,3.80
2022-08-26T11:52:51.528Z,3.58
2022-08-26T11:55:56.498Z,3.40
2022-08-26T11:59:03.798Z,3.62
2022-08-26T12:02:15.410Z,3.55
2022-08-26T12:05:25.679Z,3.57
2022-08-26T12:08:34.148Z,3.83
2022-08-26T12:11:38.570Z,3.37
2022-08-26T12:14:44.111Z,4.00
2022-08-26T12:17:51.728Z,3.62
2022-08-26T12:20:57.879Z,4.12
2022-08-26T12:24:03.191Z,3.50
2022-08-26T12:27:40.002Z,3.92
2022-08-26T12:31:01.025Z,3.70
2022-08-26T12:34:06.279Z,4.40
2022-08-26T12:37:20.103Z,4.65
2022-08-26T12:40:39.539Z,4.03
2022-08-26T12:43:44.840Z,3.10
2022-08-26T12:46:50.480Z,3.35
2022-08-26T12:50:22.103Z,3.35
2022-08-26T12:53:32.175Z,3.05
2022-08-26T12:56:40.684Z,3.60
2022-08-26T12:59:42.959Z,3.30
2022-08-26T13:02:45.477Z,3.28
2022-08-26T13:05:47.856Z,3.67
2022-08-26T13:08:52.898Z,3.60
2022-08-26T13:11:55.189Z,3.97
2022-08-26T13:18:00.963Z,3.97
2022-08-26T13:21:24.940Z,3.58
2022-08-26T13:24:41.963Z,3.60
2022-08-26T13:27:44.532Z,3.58
2022-08-26T13:30:48.167Z,3.80
2022-08-26T13:33:51.211Z,3.80
2022-08-26T13:36:56.343Z,3.50
2022-08-26T13:39:59.498Z,3.40
2022-08-26T13:43:02.426Z,3.75
2022-08-26T13:46:07.246Z,3.87
2022-08-26T13:49:10.278Z,3.37
2022-08-26T13:52:13.374Z,3.72
2022-08-26T13:55:16.265Z,3.55
2022-08-26T13:58:18.977Z,3.85
2022-08-26T14:01:21.247Z,3.35
2022-08-26T14:07:29.603Z,3.70
2022-08-26T14:10:32.433Z,3.83
2022-08-26T14:16:39.410Z,3.08
2022-08-26T14:20:04.277Z,4.35
2022-08-26T14:23:14.633Z,4.78
2022-08-26T14:26:28.425Z,3.65
2022-08-26T14:29:33.471Z,3.20
2022-08-26T14:32:36.437Z,3.90
2022-08-26T14:35:39.915Z,3.90
2022-08-26T14:38:50.664Z,3.72
2022-08-26T14:41:55.679Z,4.15
2022-08-26T14:45:01.717Z,3.30
2022-08-26T14:48:04.867Z,3.85
2022-08-26T14:51:07.221Z,3.67
2022-08-26T14:54:14.046Z,3.70
2022-08-26T14:57:17.289Z,4.50
2022-08-26T15:00:19.880Z,3.50
2022-08-26T15:03:22.242Z,3.92
2022-08-26T15:06:25.094Z,3.90
2022-08-26T15:09:29.253Z,4.30
2022-08-26T15:12:33.883Z,3.55
2022-08-26T15:15:37.332Z,3.80
2022-08-26T15:18:40.351Z,3.60
2022-08-26T15:24:45.794Z,3.58
2022-08-26T15:27:48.700Z,4.55
2022-08-26T15:30:51.665Z,3.92
2022-08-26T15:33:54.342Z,3.20
2022-08-26T15:39:59.022Z,3.60
2022-08-26T15:43:18.551Z,5.20
2022-08-26T15:46:24.787Z,4.03
2022-08-26T15:49:27.715Z,3.95
2022-08-26T15:52:30.008Z,4.12
2022-08-26T15:55:32.612Z,3.90
2022-08-26T15:58:34.966Z,3.95
2022-08-26T16:01:38.865Z,4.25
2022-08-26T16:04:41.954Z,3.92
2022-08-26T16:07:47.701Z,4.10
2022-08-26T16:10:51.367Z,3.58
2022-08-26T16:13:54.077Z,3.97
2022-08-26T16:19:59.932Z,4.57
2022-08-26T16:23:03.827Z,3.97
2022-08-26T16:26:10.857Z,3.65
2022-08-26T16:29:16.254Z,3.55
2022-08-26T16:32:18.536Z,3.97
2022-08-26T16:35:21.124Z,4.35
2022-08-26T16:38:23.410Z,5.07
2022-08-26T16:41:29.856Z,4.50
2022-08-26T16:44:44.192Z,3.72
2022-08-26T16:47:48.091Z,3.80
2022-08-26T16:50:51.594Z,3.58
2022-08-26T16:53:56.327Z,3.92
2022-08-26T16:56:58.644Z,3.70
2022-08-26T17:00:05.076Z,4.37
2022-08-26T17:03:09.325Z,4.12
2022-08-26T17:06:13.124Z,4.15
2022-08-26T17:09:15.995Z,4.12
2022-08-26T17:12:18.859Z,3.62
2022-08-26T17:15:23.766Z,3.35
2022-08-26T17:18:29.241Z,3.95
2022-08-26T17:21:34.223Z,4.00
2022-08-26T17:24:37.384Z,3.65
2022-08-26T17:27:40.849Z,4.10
2022-08-26T17:30:44.405Z,3.87
2022-08-26T17:33:53.213Z,4.20
2022-08-26T17:36:56.141Z,4.30
2022-08-26T17:39:58.568Z,5.63
2022-08-26T17:43:01.833Z,5.30
2022-08-26T17:46:07.451Z,5.27
2022-08-26T17:49:10.159Z,5.78
2022-08-26T17:52:12.812Z,4.03
2022-08-26T17:55:17.886Z,3.65
2022-08-26T17:58:23.752Z,3.95
2022-08-26T18:01:28.341Z,3.33
2022-08-26T18:04:31.801Z,5.43
2022-08-26T18:10:47.219Z,5.80
2022-08-26T18:13:49.464Z,4.70
2022-08-26T18:16:52.471Z,4.35
2022-08-26T18:19:54.951Z,4.15
2022-08-26T18:22:57.504Z,4.40
2022-08-26T18:25:59.748Z,4.07
2022-08-26T18:29:02.691Z,4.20
2022-08-26T18:32:05.083Z,5.65
2022-08-26T18:35:08.863Z,4.35
2022-08-26T18:38:14.046Z,5.00
2022-08-26T18:41:20.602Z,4.45
2022-08-26T18:44:23.370Z,4.10
2022-08-26T18:47:25.918Z,5.07
2022-08-26T18:50:28.743Z,4.47
2022-08-26T18:53:34.296Z,5.05
2022-08-26T18:56:38.268Z,4.70
2022-08-26T18:59:41.047Z,4.30
2022-08-26T19:02:43.716Z,4.03
2022-08-26T19:05:55.546Z,4.40
2022-08-26T19:08:58.292Z,5.20
2022-08-26T19:12:02.302Z,4.25
2022-08-26T19:15:05.043Z,4.18
2022-08-26T19:18:15.139Z,4.80
2022-08-26T19:21:17.858Z,4.22
2022-08-26T19:24:21.151Z,4.47
2022-08-26T19:27:23.432Z,4.12
2022-08-26T19:30:27.997Z,5.05
2022-08-26T19:33:33.463Z,4.55
2022-08-26T19:36:36.556Z,4.70
2022-08-26T19:39:38.890Z,4.45
2022-08-26T19:42:42.007Z,4.68
2022-08-26T19:45:44.815Z,4.57
2022-08-26T19:51:53.212Z,4.50
2022-08-26T19:54:55.956Z,4.78
2022-08-26T19:57:58.381Z,4.97
2022-08-26T20:01:02.794Z,5.47
2022-08-26T20:04:09.906Z,4.70
2022-08-26T20:07:18.520Z,5.03
2022-08-26T20:10:24.113Z,4.80
2022-08-26T20:13:29.236Z,4.75
2022-08-26T20:16:33.044Z,4.35
2022-08-26T20:19:54.210Z,4.50
2022-08-26T20:22:59.277Z,4.95
2022-08-26T20:26:06.215Z,5.30
2022-08-26T20:29:15.324Z,4.28
2022-08-26T20:32:22.031Z,4.40
2022-08-26T20:35:30.211Z,4.03
2022-08-26T20:38:32.468Z,5.30
2022-08-26T20:41:36.787Z,3.95
2022-08-26T20:44:40.324Z,4.50
2022-08-26T20:47:52.466Z,3.75
2022-08-26T20:50:59.741Z,4.37
2022-08-26T20:54:02.523Z,3.90
2022-08-26T20:57:07.863Z,4.30
2022-08-26T21:00:13.206Z,4.45
2022-08-26T21:03:19.691Z,4.70
2022-08-26T21:06:23.193Z,4.18
2022-08-26T21:09:29.747Z,5.62
2022-08-26T21:12:33.355Z,4.43
2022-08-26T21:15:35.635Z,4.20
2022-08-26T21:18:40.809Z,4.30
2022-08-26T21:21:50.000Z,4.80
2022-08-26T21:25:04.306Z,4.30
2022-08-26T21:28:06.656Z,4.87
2022-08-26T21:31:16.098Z,4.85
2022-08-26T21:34:22.414Z,4.80
2022-08-26T21:37:26.374Z,4.82
2022-08-26T21:40:28.651Z,4.70
2022-08-26T21:43:35.526Z,4.20
2022-08-26T21:46:38.288Z,4.43
2022-08-26T21:49:40.907Z,4.85
2022-08-26T21:52:46.169Z,4.07
2022-08-26T21:55:48.892Z,4.28
2022-08-26T21:58:52.576Z,4.70
2022-08-26T22:01:56.173Z,4.47
2022-08-26T22:04:58.717Z,5.10
2022-08-26T22:08:00.959Z,4.60
2022-08-26T22:11:06.849Z,4.57
2022-08-26T22:14:09.799Z,4.43
2022-08-26T22:17:12.713Z,4.20
2022-08-26T22:20:16.645Z,4.40
2022-08-26T22:23:20.836Z,4.55
2022-08-26T22:26:25.523Z,4.87
2022-08-26T22:29:28.508Z,4.20
2022-08-26T22:32:30.709Z,4.95
2022-08-26T22:35:40.491Z,4.62
2022-08-26T22:38:52.132Z,4.15
2022-08-26T22:42:03.924Z,4.12
2022-08-26T22:45:07.381Z,4.87
2022-08-26T22:48:12.393Z,4.82
2022-08-26T22:51:14.708Z,5.57
2022-08-26T22:54:19.469Z,4.65
2022-08-26T22:57:23.141Z,4.75
2022-08-26T23:00:28.981Z,4.97
2022-08-26T23:03:35.858Z,3.97
2022-08-26T23:06:41.614Z,4.47
2022-08-26T23:09:44.023Z,4.47
2022-08-26T23:12:46.591Z,5.93
2022-08-26T23:15:48.823Z,4.28
2022-08-26T23:18:51.369Z,4.50
2022-08-26T23:21:53.601Z,4.82
2022-08-26T23:24:56.424Z,4.73
2022-08-26T23:28:00.485Z,5.20
2022-08-26T23:31:03.448Z,4.75
2022-08-26T23:34:24.659Z,4.70
2022-08-26T23:37:34.938Z,4.78
2022-08-26T23:40:38.842Z,5.05
2022-08-26T23:43:41.743Z,4.70
2022-08-26T23:46:44.010Z,4.65
2022-08-26T23:49:46.594Z,5.10
2022-08-26T23:53:08.789Z,4.75
2022-08-26T23:56:16.457Z,4.70
2022-08-26T23:59:18.927Z,4.53
